createdAt,value
2022-08-09T00:00:24.959Z,70.50
2022-08-09T00:01:24.986Z,71.00
2022-08-09T00:02:25.026Z,70.86
2022-08-09T00:04:03.532Z,70.46
2022-08-09T00:04:34.649Z,71.56
2022-08-09T00:06:19.549Z,70.96
2022-08-09T00:06:24.860Z,71.06
2022-08-09T00:07:29.687Z,70.96
2022-08-09T00:08:32.389Z,70.46
2022-08-09T00:09:24.812Z,70.86
2022-08-09T00:10:24.933Z,70.46
2022-08-09T00:11:27.707Z,71.16
2022-08-09T00:12:24.866Z,71.00
2022-08-09T00:13:24.756Z,70.70
2022-08-09T00:14:30.074Z,70.86
2022-08-09T00:15:26.739Z,71.00
2022-08-09T00:16:25.920Z,71.00
2022-08-09T00:18:05.513Z,70.96
2022-08-09T00:18:24.653Z,70.50
2022-08-09T00:19:24.649Z,70.59
2022-08-09T00:20:24.625Z,71.00
2022-08-09T00:21:24.604Z,70.79
2022-08-09T00:22:24.634Z,71.09
2022-08-09T00:23:56.554Z,71.20
2022-08-09T00:24:24.550Z,71.20
2022-08-09T00:25:32.887Z,70.79
2022-08-09T00:26:29.988Z,70.70
2022-08-09T00:27:24.501Z,71.20
2022-08-09T00:28:26.507Z,71.30
2022-08-09T00:30:10.237Z,71.00
2022-08-09T00:30:26.757Z,71.09
2022-08-09T00:31:58.162Z,70.79
2022-08-09T00:32:27.248Z,70.93
2022-08-09T00:33:49.092Z,71.03
2022-08-09T00:34:24.408Z,71.13
2022-08-09T00:35:24.378Z,71.73
2022-08-09T00:36:29.649Z,71.53
2022-08-09T00:37:24.330Z,70.83
2022-08-09T00:38:24.311Z,71.33
2022-08-09T00:40:12.838Z,71.43
2022-08-09T00:40:30.961Z,71.13
2022-08-09T00:44:13.637Z,71.33
2022-08-09T00:44:16.958Z,71.73
2022-08-09T00:44:25.649Z,71.53
2022-08-09T00:44:27.423Z,71.43
2022-08-09T00:45:24.209Z,71.73
2022-08-09T00:46:55.514Z,72.44
2022-08-09T00:47:25.057Z,71.43
2022-08-09T00:48:24.154Z,71.43
2022-08-09T00:49:24.151Z,72.24
2022-08-09T00:50:24.110Z,72.13
2022-08-09T00:51:24.089Z,72.33
2022-08-09T00:52:30.572Z,71.43
2022-08-09T00:53:24.577Z,71.94
2022-08-09T00:54:35.201Z,72.24
2022-08-09T00:56:03.094Z,72.27
2022-08-09T00:56:24.003Z,72.07
2022-08-09T00:57:24.623Z,71.97
2022-08-09T00:58:27.615Z,72.97
2022-08-09T00:59:40.606Z,72.97
2022-08-09T01:00:23.938Z,72.87
2022-08-09T01:01:23.944Z,73.68
2022-08-09T01:02:23.944Z,73.58
2022-08-09T01:03:23.903Z,73.41
2022-08-09T01:04:23.869Z,73.47
2022-08-09T01:05:51.507Z,73.07
2022-08-09T01:06:25.525Z,73.61
2022-08-09T01:07:37.944Z,73.11
2022-08-09T01:08:26.735Z,73.58
2022-08-09T01:09:23.839Z,73.51
2022-08-09T01:10:25.968Z,73.31
2022-08-09T01:11:23.746Z,73.91
2022-08-09T01:12:23.822Z,73.81
2022-08-09T01:13:23.710Z,74.01
2022-08-09T01:14:23.711Z,73.71
2022-08-09T01:15:23.678Z,73.71
2022-08-09T01:16:23.673Z,73.81
2022-08-09T01:17:23.641Z,73.71
2022-08-09T01:18:29.965Z,73.51
2022-08-09T01:19:40.233Z,73.81
2022-08-09T01:20:23.591Z,73.81
2022-08-09T01:21:24.828Z,73.81
2022-08-09T01:22:23.559Z,73.81
2022-08-09T01:24:01.748Z,73.81
2022-08-09T01:24:23.521Z,74.01
2022-08-09T01:25:23.507Z,73.81
2022-08-09T01:26:23.490Z,73.41
2022-08-09T01:27:23.486Z,74.52
2022-08-09T01:28:23.475Z,74.35
2022-08-09T01:29:23.434Z,73.95
2022-08-09T01:30:33.562Z,74.82
2022-08-09T01:31:40.943Z,74.72
2022-08-09T01:32:31.771Z,74.55
2022-08-09T01:33:23.383Z,74.75
2022-08-09T01:34:23.347Z,74.85
2022-08-09T01:35:38.810Z,74.92
2022-08-09T01:36:23.310Z,74.55
2022-08-09T01:37:42.900Z,74.65
2022-08-09T01:38:23.499Z,74.65
2022-08-09T01:39:23.574Z,75.15
2022-08-09T01:40:28.499Z,74.95
2022-08-09T01:41:25.893Z,74.55
2022-08-09T01:42:23.210Z,75.35
2022-08-09T01:43:24.171Z,74.35
2022-08-09T01:44:23.191Z,74.38
2022-08-09T01:45:23.158Z,75.05
2022-08-09T01:46:24.811Z,75.05
2022-08-09T01:47:23.123Z,75.19
2022-08-09T01:48:24.089Z,75.56
2022-08-09T01:49:24.371Z,74.89
2022-08-09T01:50:29.978Z,74.65
2022-08-09T01:51:23.195Z,74.95
2022-08-09T01:52:23.040Z,74.65
2022-08-09T01:53:23.034Z,74.95
2022-08-09T01:54:23.005Z,75.56
2022-08-09T01:55:22.983Z,74.69
2022-08-09T01:56:22.970Z,75.26
2022-08-09T01:57:22.949Z,74.79
2022-08-09T01:58:24.304Z,74.55
2022-08-09T01:59:22.992Z,74.58
2022-08-09T02:00:35.663Z,74.79
2022-08-09T02:01:30.522Z,74.79
2022-08-09T02:02:22.861Z,74.99
2022-08-09T02:03:22.841Z,74.95
2022-08-09T02:04:22.841Z,75.86
2022-08-09T02:05:38.126Z,75.59
2022-08-09T02:06:22.791Z,74.79
2022-08-09T02:08:35.337Z,74.89
2022-08-09T02:08:40.327Z,74.89
2022-08-09T02:09:22.739Z,75.49
2022-08-09T02:10:29.846Z,74.75
2022-08-09T02:11:23.684Z,74.89
2022-08-09T02:12:22.688Z,75.19
2022-08-09T02:13:26.314Z,75.09
2022-08-09T02:14:26.222Z,75.49
2022-08-09T02:15:22.636Z,74.89
2022-08-09T02:16:33.630Z,74.79
2022-08-09T02:17:59.291Z,75.49
2022-08-09T02:18:22.579Z,74.65
2022-08-09T02:19:22.559Z,74.85
2022-08-09T02:20:26.727Z,75.35
2022-08-09T02:21:22.690Z,75.29
2022-08-09T02:22:27.264Z,74.58
2022-08-09T02:23:23.146Z,75.39
2022-08-09T02:24:26.179Z,76.20
2022-08-09T02:25:22.456Z,75.19
2022-08-09T02:26:25.180Z,75.19
2022-08-09T02:27:43.059Z,74.99
2022-08-09T02:28:24.283Z,75.29
2022-08-09T02:29:22.389Z,76.30
2022-08-09T02:30:22.383Z,75.90
2022-08-09T02:31:22.351Z,75.39
2022-08-09T02:32:22.337Z,76.10
2022-08-09T02:33:23.102Z,75.19
2022-08-09T02:34:25.820Z,75.70
2022-08-09T02:35:26.131Z,75.79
2022-08-09T02:36:22.276Z,75.90
2022-08-09T02:37:22.256Z,75.39
2022-08-09T02:38:28.546Z,75.29
2022-08-09T02:39:33.497Z,75.49
2022-08-09T02:40:27.021Z,75.70
2022-08-09T02:41:22.177Z,75.49
2022-08-09T02:42:24.822Z,74.99
2022-08-09T02:43:22.165Z,75.39
2022-08-09T02:44:30.277Z,75.59
2022-08-09T02:45:22.118Z,75.59
2022-08-09T02:46:22.084Z,75.39
2022-08-09T02:47:22.067Z,75.39
2022-08-09T02:48:30.759Z,75.99
2022-08-09T02:49:38.172Z,75.79
2022-08-09T02:50:22.037Z,75.79
2022-08-09T02:51:22.007Z,75.90
2022-08-09T02:52:21.995Z,76.50
2022-08-09T02:53:26.367Z,76.30
2022-08-09T02:54:21.955Z,76.10
2022-08-09T02:55:21.931Z,76.10
2022-08-09T02:56:21.927Z,75.99
2022-08-09T02:57:23.594Z,76.50
2022-08-09T02:58:32.277Z,76.70
2022-08-09T02:59:26.506Z,76.54
2022-08-09T03:00:26.004Z,76.94
2022-08-09T03:01:29.392Z,76.74
2022-08-09T03:02:21.841Z,76.43
2022-08-09T03:03:37.143Z,76.54
2022-08-09T03:04:21.771Z,77.04
2022-08-09T03:05:21.759Z,76.94
2022-08-09T03:06:21.740Z,76.74
2022-08-09T03:07:21.736Z,77.44
2022-08-09T03:08:21.696Z,76.50
2022-08-09T03:09:21.684Z,76.74
2022-08-09T03:10:21.661Z,77.14
2022-08-09T03:11:29.726Z,76.94
2022-08-09T03:12:21.642Z,76.54
2022-08-09T03:13:21.609Z,76.84
2022-08-09T03:14:21.773Z,76.54
2022-08-09T03:15:23.104Z,76.34
2022-08-09T03:16:21.562Z,77.04
2022-08-09T03:17:26.704Z,76.94
2022-08-09T03:18:31.186Z,77.34
2022-08-09T03:19:52.850Z,77.14
2022-08-09T03:20:21.502Z,76.74
2022-08-09T03:21:25.920Z,77.68
2022-08-09T03:22:25.644Z,77.58
2022-08-09T03:23:24.469Z,77.64
2022-08-09T03:24:31.648Z,77.84
2022-08-09T03:25:26.314Z,77.64
2022-08-09T03:26:21.377Z,77.48
2022-08-09T03:27:22.221Z,77.48
2022-08-09T03:28:21.363Z,78.28
2022-08-09T03:29:22.660Z,77.48
2022-08-09T03:30:29.782Z,78.19
2022-08-09T03:31:22.883Z,78.28
2022-08-09T03:32:21.267Z,78.19
2022-08-09T03:33:21.275Z,78.89
2022-08-09T03:34:21.253Z,78.63
2022-08-09T03:35:24.589Z,78.59
2022-08-09T03:36:21.206Z,78.63
2022-08-09T03:37:55.177Z,78.72
2022-08-09T03:38:28.786Z,78.52
2022-08-09T03:39:21.873Z,79.23
2022-08-09T03:40:21.155Z,78.52
2022-08-09T03:41:21.107Z,78.92
2022-08-09T03:42:21.096Z,78.72
2022-08-09T03:43:21.093Z,79.03
2022-08-09T03:44:21.055Z,78.83
2022-08-09T03:46:05.049Z,78.72
2022-08-09T03:46:29.199Z,78.72
2022-08-09T03:47:21.005Z,78.92
2022-08-09T03:48:30.769Z,79.03
2022-08-09T03:49:21.246Z,79.03
2022-08-09T03:50:27.768Z,79.03
2022-08-09T03:51:43.940Z,79.23
2022-08-09T03:52:20.947Z,79.03
2022-08-09T03:53:20.907Z,79.47
2022-08-09T03:54:29.615Z,79.63
2022-08-09T03:55:20.875Z,79.33
2022-08-09T03:56:20.845Z,79.63
2022-08-09T03:57:21.104Z,79.87
2022-08-09T03:58:21.187Z,80.07
2022-08-09T03:59:27.301Z,79.93
2022-08-09T04:00:20.792Z,79.87
2022-08-09T04:01:20.757Z,80.07
2022-08-09T04:02:26.778Z,80.18
2022-08-09T04:03:35.333Z,80.07
2022-08-09T04:04:20.722Z,80.07
2022-08-09T04:05:27.834Z,80.27
2022-08-09T04:06:20.684Z,80.27
2022-08-09T04:07:20.650Z,80.27
2022-08-09T04:08:28.946Z,80.27
2022-08-09T04:09:48.004Z,80.68
2022-08-09T04:10:20.981Z,80.98
2022-08-09T04:11:20.576Z,80.78
2022-08-09T04:12:30.392Z,80.78
2022-08-09T04:13:24.804Z,80.88
2022-08-09T04:14:53.917Z,80.68
2022-08-09T04:15:42.678Z,80.68
2022-08-09T04:16:21.606Z,80.68
2022-08-09T04:17:20.466Z,80.78
2022-08-09T04:18:21.492Z,80.78
2022-08-09T04:19:42.799Z,80.68
2022-08-09T04:20:20.408Z,80.47
2022-08-09T04:21:20.417Z,80.88
2022-08-09T04:22:20.374Z,80.88
2022-08-09T04:23:23.374Z,80.88
2022-08-09T04:24:20.356Z,80.78
2022-08-09T04:25:20.321Z,80.78
2022-08-09T04:26:20.305Z,80.78
2022-08-09T04:27:22.081Z,80.88
2022-08-09T04:28:34.146Z,80.98
2022-08-09T04:29:20.268Z,80.88
2022-08-09T04:30:20.954Z,80.58
2022-08-09T04:31:20.217Z,81.28
2022-08-09T04:32:31.446Z,81.28
2022-08-09T04:33:20.178Z,80.68
2022-08-09T04:34:30.695Z,80.98
2022-08-09T04:35:21.734Z,80.88
2022-08-09T04:36:20.145Z,80.88
2022-08-09T04:37:20.107Z,80.74
2022-08-09T04:38:20.090Z,80.84
2022-08-09T04:39:20.121Z,80.98
2022-08-09T04:40:36.174Z,80.94
2022-08-09T04:41:23.436Z,80.84
2022-08-09T04:42:20.014Z,80.84
2022-08-09T04:43:20.017Z,80.84
2022-08-09T04:44:19.977Z,80.74
2022-08-09T04:45:20.544Z,81.15
2022-08-09T04:46:36.426Z,80.64
2022-08-09T04:47:19.928Z,80.64
2022-08-09T04:48:19.910Z,80.94
2022-08-09T04:49:30.164Z,80.94
2022-08-09T04:50:19.891Z,80.94
2022-08-09T04:51:19.863Z,80.74
2022-08-09T04:52:21.968Z,80.74
2022-08-09T04:53:19.823Z,80.94
2022-08-09T04:54:19.808Z,80.74
2022-08-09T04:55:19.782Z,80.74
2022-08-09T04:56:20.063Z,80.80
2022-08-09T04:57:23.735Z,80.74
2022-08-09T04:58:19.729Z,81.15
2022-08-09T04:59:22.660Z,80.80
2022-08-09T05:00:19.705Z,80.60
2022-08-09T05:01:19.678Z,81.21
2022-08-09T05:02:19.684Z,80.80
2022-08-09T05:03:40.078Z,80.80
2022-08-09T05:04:19.657Z,80.80
2022-08-09T05:05:32.518Z,80.70
2022-08-09T05:06:27.334Z,80.70
2022-08-09T05:07:19.981Z,80.80
2022-08-09T05:08:19.573Z,80.50
2022-08-09T05:09:19.538Z,81.21
2022-08-09T05:10:19.522Z,80.66
2022-08-09T05:11:19.501Z,80.50
2022-08-09T05:12:21.078Z,80.70
2022-08-09T05:13:19.486Z,80.70
2022-08-09T05:14:19.451Z,80.70
2022-08-09T05:15:24.854Z,80.66
2022-08-09T05:16:19.424Z,80.66
2022-08-09T05:18:36.878Z,80.57
2022-08-09T05:18:39.912Z,80.77
2022-08-09T05:19:23.548Z,80.57
2022-08-09T05:20:19.358Z,80.57
2022-08-09T05:21:24.661Z,80.66
2022-08-09T05:22:36.297Z,80.46
2022-08-09T05:23:54.965Z,80.46
2022-08-09T05:24:19.286Z,80.57
2022-08-09T05:25:19.285Z,80.46
2022-08-09T05:26:22.297Z,80.63
2022-08-09T05:27:19.222Z,80.12
2022-08-09T05:28:19.212Z,80.32
2022-08-09T05:29:21.160Z,79.92
2022-08-09T05:30:19.542Z,79.82
2022-08-09T05:31:19.149Z,79.82
2022-08-09T05:32:19.128Z,79.82
2022-08-09T05:33:19.117Z,79.42
2022-08-09T05:34:19.099Z,79.22
2022-08-09T05:35:19.100Z,79.32
2022-08-09T05:36:19.064Z,79.22
2022-08-09T05:37:19.045Z,79.38
2022-08-09T05:38:21.652Z,79.48
2022-08-09T05:39:28.261Z,79.18
2022-08-09T05:40:19.655Z,79.18
2022-08-09T05:41:19.007Z,78.78
2022-08-09T05:42:21.462Z,78.78
2022-08-09T05:43:18.939Z,79.28
2022-08-09T05:44:22.217Z,79.04
2022-08-09T05:45:18.919Z,78.78
2022-08-09T05:46:18.891Z,78.54
2022-08-09T05:47:18.872Z,78.64
2022-08-09T05:48:18.844Z,78.67
2022-08-09T05:50:23.257Z,78.78
2022-08-09T05:50:30.292Z,78.84
2022-08-09T05:51:46.248Z,78.14
2022-08-09T05:52:18.781Z,78.03
2022-08-09T05:53:21.865Z,78.47
2022-08-09T05:54:18.744Z,78.14
2022-08-09T05:55:20.867Z,78.54
2022-08-09T05:56:18.735Z,78.54
2022-08-09T05:57:19.332Z,78.03
2022-08-09T05:58:18.675Z,77.53
2022-08-09T05:59:18.666Z,77.63
2022-08-09T06:00:19.392Z,77.83
2022-08-09T06:01:18.635Z,77.63
2022-08-09T06:02:18.634Z,78.14
2022-08-09T06:03:19.736Z,77.59
2022-08-09T06:04:23.647Z,78.10
2022-08-09T06:05:18.564Z,77.80
2022-08-09T06:06:18.535Z,78.10
2022-08-09T06:07:21.353Z,77.70
2022-08-09T06:08:19.813Z,77.50
2022-08-09T06:09:40.590Z,78.30
2022-08-09T06:10:18.465Z,77.39
2022-08-09T06:11:18.456Z,77.09
2022-08-09T06:12:18.432Z,76.89
2022-08-09T06:13:20.556Z,76.69
2022-08-09T06:14:18.396Z,76.65
2022-08-09T06:15:18.379Z,77.50
2022-08-09T06:16:18.359Z,77.26
2022-08-09T06:17:18.347Z,77.36
2022-08-09T06:18:18.345Z,76.96
2022-08-09T06:19:18.313Z,76.86
2022-08-09T06:20:18.421Z,77.46
2022-08-09T06:21:18.273Z,77.42
2022-08-09T06:22:18.277Z,76.21
2022-08-09T06:23:18.240Z,76.72
2022-08-09T06:24:18.241Z,77.02
2022-08-09T06:25:18.225Z,76.92
2022-08-09T06:26:21.356Z,76.92
2022-08-09T06:27:18.171Z,76.18
2022-08-09T06:28:18.176Z,75.51
2022-08-09T06:29:18.145Z,76.68
2022-08-09T06:30:18.123Z,75.78
2022-08-09T06:31:18.099Z,75.08
2022-08-09T06:32:59.458Z,74.88
2022-08-09T06:33:39.681Z,75.78
2022-08-09T06:34:18.074Z,75.27
2022-08-09T06:35:18.044Z,74.88
2022-08-09T06:36:18.021Z,75.38
2022-08-09T06:37:18.030Z,76.28
2022-08-09T06:38:17.980Z,75.45
2022-08-09T06:39:18.029Z,74.77
2022-08-09T06:40:24.021Z,75.68
2022-08-09T06:41:19.266Z,75.04
2022-08-09T06:42:17.922Z,74.34
2022-08-09T06:43:17.901Z,74.94
2022-08-09T06:44:18.252Z,75.84
2022-08-09T06:46:04.947Z,75.45
2022-08-09T06:46:39.453Z,74.64
2022-08-09T06:47:17.831Z,74.84
2022-08-09T06:48:17.816Z,74.24
2022-08-09T06:49:28.956Z,74.64
2022-08-09T06:50:19.325Z,74.51
2022-08-09T06:51:17.765Z,74.90
2022-08-09T06:52:17.773Z,74.01
2022-08-09T06:53:17.731Z,74.30
2022-08-09T06:54:17.711Z,73.80
2022-08-09T06:55:17.708Z,73.50
2022-08-09T06:56:17.681Z,73.40
2022-08-09T06:57:17.680Z,73.60
2022-08-09T06:58:40.590Z,73.50
2022-08-09T07:00:48.871Z,73.40
2022-08-09T07:00:55.411Z,73.40
2022-08-09T07:01:17.706Z,73.60
2022-08-09T07:02:17.636Z,73.27
2022-08-09T07:03:17.577Z,73.47
2022-08-09T07:04:20.060Z,73.36
2022-08-09T07:05:17.545Z,73.67
2022-08-09T07:06:17.508Z,73.36
2022-08-09T07:07:58.664Z,73.27
2022-08-09T07:08:17.476Z,73.53
2022-08-09T07:09:53.455Z,73.13
2022-08-09T07:10:29.648Z,73.03
2022-08-09T07:11:23.636Z,71.80
2022-08-09T07:12:18.567Z,72.43
2022-08-09T07:13:18.793Z,72.19
2022-08-09T07:14:17.376Z,71.09
2022-08-09T07:15:54.103Z,71.09
2022-08-09T07:16:41.951Z,71.50
2022-08-09T07:17:17.324Z,71.30
2022-08-09T07:18:17.317Z,71.00
2022-08-09T07:19:22.879Z,70.69
2022-08-09T07:20:17.302Z,70.59
2022-08-09T07:21:17.265Z,70.79
2022-08-09T07:22:17.276Z,70.46
2022-08-09T07:23:18.490Z,70.56
2022-08-09T07:24:17.228Z,71.26
2022-08-09T07:25:17.195Z,70.16
2022-08-09T07:26:17.180Z,70.26
2022-08-09T07:27:26.531Z,70.36
2022-08-09T07:28:19.212Z,70.86
2022-08-09T07:29:17.128Z,71.16
2022-08-09T07:30:17.138Z,70.03
2022-08-09T07:31:17.098Z,69.86
2022-08-09T07:32:17.081Z,69.73
2022-08-09T07:33:17.080Z,70.12
2022-08-09T07:34:19.483Z,69.12
2022-08-09T07:35:17.022Z,69.62
2022-08-09T07:36:17.018Z,69.23
2022-08-09T07:37:16.996Z,69.19
2022-08-09T07:38:16.983Z,69.29
2022-08-09T07:39:20.454Z,69.39
2022-08-09T07:40:18.741Z,69.09
2022-08-09T07:41:17.052Z,68.79
2022-08-09T07:42:17.175Z,69.09
2022-08-09T07:43:17.263Z,68.89
2022-08-09T07:44:16.879Z,68.76
2022-08-09T07:45:23.734Z,69.06
2022-08-09T07:46:17.189Z,68.66
2022-08-09T07:47:16.833Z,68.56
2022-08-09T07:48:25.742Z,67.86
2022-08-09T07:49:16.804Z,68.56
2022-08-09T07:50:16.806Z,68.46
2022-08-09T07:52:06.259Z,67.66
2022-08-09T07:52:17.852Z,67.86
2022-08-09T07:53:16.810Z,67.46
2022-08-09T07:54:27.511Z,67.83
2022-08-09T07:55:16.706Z,67.72
2022-08-09T07:56:26.796Z,67.63
2022-08-09T07:57:16.674Z,67.60
2022-08-09T07:58:16.670Z,67.60
2022-08-09T07:59:25.244Z,67.10
2022-08-09T08:00:20.865Z,66.89
2022-08-09T08:01:16.658Z,65.90
2022-08-09T08:02:19.220Z,65.47
2022-08-09T08:03:16.577Z,65.67
2022-08-09T08:04:16.567Z,65.67
2022-08-09T08:05:18.686Z,65.77
2022-08-09T08:06:21.095Z,65.77
2022-08-09T08:08:42.623Z,65.17
2022-08-09T08:09:02.219Z,65.34
2022-08-09T08:09:34.461Z,65.73
2022-08-09T08:10:18.419Z,65.34
2022-08-09T08:12:24.019Z,63.91
2022-08-09T08:12:28.236Z,64.61
2022-08-09T08:13:16.418Z,63.21
2022-08-09T08:14:16.402Z,63.61
2022-08-09T08:15:17.187Z,63.41
2022-08-09T08:16:31.821Z,64.18
2022-08-09T08:17:35.164Z,64.37
2022-08-09T08:18:16.500Z,63.31
2022-08-09T08:19:17.390Z,63.28
2022-08-09T08:20:16.304Z,63.48
2022-08-09T08:21:16.288Z,63.38
2022-08-09T08:22:16.275Z,63.45
2022-08-09T08:23:17.729Z,63.25
2022-08-09T08:24:16.517Z,62.65
2022-08-09T08:25:16.221Z,62.32
2022-08-09T08:26:16.207Z,62.42
2022-08-09T08:27:17.284Z,62.52
2022-08-09T08:28:17.957Z,61.53
2022-08-09T08:29:20.242Z,62.02
2022-08-09T08:30:16.160Z,61.23
2022-08-09T08:31:16.133Z,61.00
2022-08-09T08:32:24.302Z,60.60
2022-08-09T08:33:24.013Z,60.50
2022-08-09T08:34:16.085Z,61.40
2022-08-09T08:35:18.268Z,60.87
2022-08-09T08:36:28.229Z,60.08
2022-08-09T08:37:16.036Z,60.97
2022-08-09T08:38:16.023Z,60.68
2022-08-09T08:39:16.037Z,60.87
2022-08-09T08:40:16.020Z,60.55
2022-08-09T08:41:16.009Z,60.44
2022-08-09T08:42:16.594Z,59.65
2022-08-09T08:43:15.942Z,58.95
2022-08-09T08:44:15.934Z,59.45
2022-08-09T08:45:15.913Z,59.95
2022-08-09T08:46:32.351Z,59.65
2022-08-09T08:47:15.921Z,58.33
2022-08-09T08:48:16.896Z,58.62
2022-08-09T08:49:19.049Z,57.83
2022-08-09T08:50:17.945Z,58.03
2022-08-09T08:51:15.846Z,57.70
2022-08-09T08:52:35.066Z,57.11
2022-08-09T08:53:21.960Z,57.51
2022-08-09T08:54:20.274Z,58.00
2022-08-09T08:55:23.040Z,58.20
2022-08-09T08:56:25.006Z,57.28
2022-08-09T08:57:15.738Z,57.08
2022-08-09T08:58:15.751Z,57.28
2022-08-09T08:59:18.955Z,56.95
2022-08-09T09:00:20.893Z,56.26
2022-08-09T09:01:20.957Z,56.93
2022-08-09T09:02:31.003Z,56.23
2022-08-09T09:03:23.054Z,55.15
2022-08-09T09:04:15.646Z,55.44
2022-08-09T09:05:15.617Z,53.75
2022-08-09T09:06:15.603Z,54.45
2022-08-09T09:07:15.604Z,54.55
2022-08-09T09:08:30.666Z,54.25
2022-08-09T09:09:21.057Z,55.51
2022-08-09T09:10:15.546Z,55.51
2022-08-09T09:11:19.761Z,55.51
2022-08-09T09:12:16.682Z,55.58
2022-08-09T09:13:15.519Z,54.32
2022-08-09T09:14:15.793Z,54.60
2022-08-09T09:15:28.662Z,53.01
2022-08-09T09:16:15.457Z,52.78
2022-08-09T09:17:16.578Z,52.88
2022-08-09T09:18:15.427Z,53.16
2022-08-09T09:19:37.256Z,52.83
2022-08-09T09:20:15.966Z,53.00
2022-08-09T09:21:15.381Z,51.72
2022-08-09T09:22:15.838Z,51.62
2022-08-09T09:23:15.358Z,51.40
2022-08-09T09:24:21.841Z,50.81
2022-08-09T09:26:03.711Z,49.42
2022-08-09T09:26:15.340Z,50.01
2022-08-09T09:28:03.563Z,49.72
2022-08-09T09:28:39.216Z,49.52
2022-08-09T09:29:17.151Z,49.69
2022-08-09T09:30:38.033Z,49.20
2022-08-09T09:31:17.606Z,49.57
2022-08-09T09:32:16.012Z,48.39
2022-08-09T09:33:17.357Z,48.54
2022-08-09T09:34:18.006Z,47.82
2022-08-09T09:35:15.921Z,47.31
2022-08-09T09:36:21.055Z,46.30
2022-08-09T09:37:15.157Z,46.57
2022-08-09T09:38:27.872Z,45.64
2022-08-09T09:39:15.159Z,44.44
2022-08-09T09:40:17.581Z,44.64
2022-08-09T09:41:15.120Z,43.55
2022-08-09T09:42:15.106Z,43.75
2022-08-09T09:43:15.083Z,43.83
2022-08-09T09:44:25.157Z,43.63
2022-08-09T09:45:26.823Z,43.04
2022-08-09T09:47:15.067Z,42.21
2022-08-09T09:48:15.027Z,42.49
2022-08-09T09:49:15.008Z,42.39
2022-08-09T09:50:17.010Z,41.41
2022-08-09T09:51:25.853Z,41.66
2022-08-09T09:52:33.710Z,41.27
2022-08-09T09:53:14.981Z,40.78
2022-08-09T09:54:20.517Z,41.08
2022-08-09T09:55:27.524Z,40.68
2022-08-09T09:56:19.692Z,40.80
2022-08-09T09:58:04.023Z,41.51
2022-08-09T09:58:16.126Z,41.31
2022-08-09T09:59:16.166Z,41.11
2022-08-09T10:00:14.887Z,41.51
2022-08-09T10:01:37.399Z,41.09
2022-08-09T10:02:14.887Z,41.00
2022-08-09T10:03:14.904Z,41.29
2022-08-09T10:04:16.138Z,41.29
2022-08-09T10:05:14.850Z,40.98
2022-08-09T10:06:14.831Z,41.66
2022-08-09T10:07:14.845Z,40.39
2022-08-09T10:08:27.343Z,41.66
2022-08-09T10:09:23.411Z,40.48
2022-08-09T10:10:14.797Z,40.78
2022-08-09T10:12:00.395Z,41.00
2022-08-09T10:12:28.408Z,40.39
2022-08-09T10:13:42.824Z,40.21
2022-08-09T10:14:14.782Z,41.29
2022-08-09T10:15:17.649Z,40.31
2022-08-09T10:16:58.025Z,40.31
2022-08-09T10:17:40.721Z,40.39
2022-08-09T10:18:14.740Z,40.80
2022-08-09T10:19:14.747Z,40.41
2022-08-09T10:20:15.301Z,41.68
2022-08-09T10:21:14.712Z,40.39
2022-08-09T10:22:14.698Z,40.58
2022-08-09T10:23:17.494Z,41.08
2022-08-09T10:24:16.072Z,40.09
2022-08-09T10:25:15.313Z,39.22
2022-08-09T10:26:14.683Z,40.48
2022-08-09T10:27:17.104Z,40.39
2022-08-09T10:28:14.663Z,40.68
2022-08-09T10:29:36.035Z,40.95
2022-08-09T10:32:38.615Z,40.00
2022-08-09T10:33:29.478Z,40.37
2022-08-09T10:34:32.322Z,40.56
2022-08-09T10:35:14.606Z,40.45
2022-08-09T10:36:14.613Z,40.23
2022-08-09T10:37:14.605Z,38.57
2022-08-09T10:38:34.402Z,38.35
2022-08-09T10:39:19.208Z,37.39
2022-08-09T10:40:34.969Z,38.35
2022-08-09T10:41:14.565Z,38.26
2022-08-09T10:42:14.557Z,37.88
2022-08-09T10:43:14.562Z,38.10
2022-08-09T10:44:14.532Z,38.98
2022-08-09T10:45:16.890Z,38.49
2022-08-09T10:46:21.065Z,38.39
2022-08-09T10:48:12.655Z,38.49
2022-08-09T10:48:29.358Z,39.47
2022-08-09T10:49:14.511Z,38.96
2022-08-09T10:50:14.997Z,39.25
2022-08-09T10:51:14.482Z,40.17
2022-08-09T10:52:20.608Z,40.09
2022-08-09T10:53:14.465Z,40.88
2022-08-09T10:54:14.469Z,41.37
2022-08-09T10:55:14.449Z,39.49
2022-08-09T10:56:14.450Z,39.19
2022-08-09T10:57:14.458Z,40.47
2022-08-09T10:58:17.232Z,39.66
2022-08-09T10:59:14.502Z,37.90
2022-08-09T11:00:14.426Z,38.68
2022-08-09T11:03:06.683Z,38.68
2022-08-09T11:03:15.112Z,38.88
2022-08-09T11:03:49.478Z,38.18
2022-08-09T11:04:19.673Z,38.47
2022-08-09T11:05:25.359Z,38.16
2022-08-09T11:06:14.377Z,38.28
2022-08-09T11:07:14.366Z,38.29
2022-08-09T11:08:14.408Z,38.49
2022-08-09T11:09:16.194Z,38.98
2022-08-09T11:10:14.343Z,39.07
2022-08-09T11:11:14.349Z,39.66
2022-08-09T11:12:14.345Z,38.78
2022-08-09T11:13:49.063Z,39.84
2022-08-09T11:14:16.381Z,39.27
2022-08-09T11:15:18.412Z,38.88
2022-08-09T11:16:14.346Z,38.39
2022-08-09T11:17:14.285Z,37.82
2022-08-09T11:18:14.282Z,38.02
2022-08-09T11:19:14.284Z,39.80
2022-08-09T11:20:22.147Z,39.31
2022-08-09T11:21:14.259Z,39.31
2022-08-09T11:22:24.201Z,39.69
2022-08-09T11:23:14.240Z,39.17
2022-08-09T11:24:14.236Z,38.10
2022-08-09T11:25:14.721Z,38.39
2022-08-09T11:26:14.245Z,38.59
2022-08-09T11:27:14.220Z,37.71
2022-08-09T11:28:30.720Z,38.39
2022-08-09T11:29:14.208Z,37.90
2022-08-09T11:30:32.796Z,38.86
2022-08-09T11:31:14.199Z,39.15
2022-08-09T11:32:14.203Z,38.96
2022-08-09T11:33:14.178Z,39.45
2022-08-09T11:34:14.160Z,39.23
2022-08-09T11:35:14.158Z,39.14
2022-08-09T11:36:14.828Z,38.55
2022-08-09T11:37:18.388Z,37.37
2022-08-09T11:38:14.124Z,36.20
2022-08-09T11:39:14.132Z,36.22
2022-08-09T11:40:14.109Z,37.39
2022-08-09T11:41:14.105Z,38.18
2022-08-09T11:42:14.628Z,37.79
2022-08-09T11:43:14.094Z,36.80
2022-08-09T11:44:14.079Z,37.37
2022-08-09T11:45:14.078Z,36.20
2022-08-09T11:46:26.494Z,37.27
2022-08-09T11:47:14.354Z,36.28
2022-08-09T11:48:19.414Z,37.45
2022-08-09T11:49:17.120Z,36.08
2022-08-09T11:50:56.023Z,35.79
2022-08-09T11:52:49.585Z,35.30
2022-08-09T11:53:00.786Z,36.57
2022-08-09T11:53:21.469Z,36.94
2022-08-09T11:54:14.705Z,35.85
2022-08-09T11:55:13.994Z,36.16
2022-08-09T11:56:13.997Z,34.91
2022-08-09T11:57:13.982Z,35.60
2022-08-09T11:58:13.975Z,35.79
2022-08-09T11:59:13.970Z,36.18
2022-08-09T12:00:16.329Z,36.18
2022-08-09T12:01:15.626Z,36.08
2022-08-09T12:02:17.401Z,35.99
2022-08-09T12:03:56.113Z,35.11
2022-08-09T12:04:23.854Z,35.01
2022-08-09T12:05:17.800Z,35.87
2022-08-09T12:06:13.942Z,34.80
2022-08-09T12:07:14.259Z,34.68
2022-08-09T12:08:19.769Z,34.41
2022-08-09T12:09:19.351Z,34.78
2022-08-09T12:10:32.018Z,34.97
2022-08-09T12:11:15.541Z,35.84
2022-08-09T12:12:28.492Z,35.74
2022-08-09T12:14:10.392Z,35.16
2022-08-09T12:14:37.261Z,35.92
2022-08-09T12:15:16.030Z,34.77
2022-08-09T12:16:30.489Z,35.25
2022-08-09T12:17:28.195Z,36.52
2022-08-09T12:18:13.831Z,34.86
2022-08-09T12:19:13.822Z,35.33
2022-08-09T12:20:16.736Z,35.14
2022-08-09T12:21:26.312Z,34.16
2022-08-09T12:22:13.821Z,34.53
2022-08-09T12:23:13.797Z,32.97
2022-08-09T12:24:13.787Z,33.95
2022-08-09T12:25:15.092Z,34.52
2022-08-09T12:26:19.513Z,34.52
2022-08-09T12:29:10.433Z,34.03
2022-08-09T12:29:14.957Z,32.76
2022-08-09T12:29:32.785Z,33.75
2022-08-09T12:30:35.627Z,34.05
2022-08-09T12:31:59.262Z,33.95
2022-08-09T12:32:13.751Z,34.05
2022-08-09T12:33:13.730Z,33.75
2022-08-09T12:34:13.719Z,34.53
2022-08-09T12:35:19.248Z,32.76
2022-08-09T12:36:15.543Z,32.37
2022-08-09T12:37:24.185Z,33.04
2022-08-09T12:38:13.703Z,31.07
2022-08-09T12:39:13.742Z,31.09
2022-08-09T12:40:13.677Z,31.48
2022-08-09T12:41:13.683Z,32.55
2022-08-09T12:42:16.295Z,33.23
2022-08-09T12:43:13.675Z,32.35
2022-08-09T12:44:13.678Z,33.07
2022-08-09T12:45:33.706Z,35.16
2022-08-09T12:46:13.649Z,35.06
2022-08-09T12:47:13.635Z,35.25
2022-08-09T12:48:27.860Z,34.06
2022-08-09T12:49:13.620Z,34.92
2022-08-09T12:50:13.614Z,34.53
2022-08-09T12:51:13.601Z,33.46
2022-08-09T12:52:13.596Z,34.22
2022-08-09T12:53:19.476Z,33.23
2022-08-09T12:54:14.113Z,33.82
2022-08-09T12:56:15.739Z,32.55